Time;durP1;ratioP1;P1;durP2;ratioP2;P2;SDS_P1;SDS_P2;PMS_P1;PMS_P2;Temp;Humidity;BMP_temperature;BMP_pressure;BME280_temperature;BME280_humidity;BME280_pressure;Samples;Min_cycle;Max_cycle;Signal;HPM_P1;HPM_P2
2020/12/18 00:00:07;;;;;;;8.75;4.35;;;7.40;99.90;;;;;;5029267;28;20026;-55
2020/12/18 00:02:33;;;;;;;9.45;5.07;;;7.40;99.90;;;;;;5027856;28;20033;-54
2020/12/18 00:05:00;;;;;;;12.35;5.15;;;7.40;99.90;;;;;;5028267;28;20040;-51
2020/12/18 00:07:26;;;;;;;9.65;3.97;;;7.30;99.90;;;;;;5027974;28;20043;-49
2020/12/18 00:09:53;;;;;;;6.88;4.40;;;7.30;99.90;;;;;;5028170;28;20033;-52
2020/12/18 00:12:19;;;;;;;11.02;4.43;;;7.40;99.90;;;;;;5020344;28;20040;-49
2020/12/18 00:14:45;;;;;;;8.27;4.22;;;7.50;99.90;;;;;;5027847;28;20048;-49
2020/12/18 00:17:11;;;;;;;8.93;4.13;;;7.50;99.90;;;;;;5028595;28;20044;-51
2020/12/18 00:19:37;;;;;;;7.63;3.63;;;7.60;99.90;;;;;;5027728;28;20112;-49
2020/12/18 00:22:03;;;;;;;7.35;4.40;;;7.50;99.90;;;;;;5027888;28;20082;-53
2020/12/18 00:24:29;;;;;;;6.65;3.75;;;7.50;99.90;;;;;;5028101;28;20049;-50
2020/12/18 00:26:55;;;;;;;6.70;3.55;;;7.50;99.90;;;;;;5028826;28;20117;-49
2020/12/18 00:29:21;;;;;;;8.35;4.50;;;7.40;99.90;;;;;;5026333;28;20033;-55
2020/12/18 00:31:47;;;;;;;8.43;3.80;;;7.40;99.90;;;;;;5028627;28;20030;-50
2020/12/18 00:34:12;;;;;;;5.70;3.88;;;7.40;99.90;;;;;;5027748;28;20065;-50
2020/12/18 00:36:38;;;;;;;7.82;3.03;;;7.40;99.90;;;;;;5028610;28;20513;-48
2020/12/18 00:39:06;;;;;;;9.45;3.75;;;7.40;99.90;;;;;;5026143;28;20075;-52
2020/12/18 00:41:32;;;;;;;6.65;3.78;;;7.40;99.90;;;;;;5032618;28;20068;-50
2020/12/18 00:43:59;;;;;;;7.00;3.33;;;7.50;99.90;;;;;;5031445;28;20061;-53
2020/12/18 00:46:25;;;;;;;7.05;4.22;;;7.50;99.90;;;;;;5032516;28;20124;-55
2020/12/18 00:48:51;;;;;;;5.82;3.70;;;7.50;99.90;;;;;;5031603;28;20029;-51
2020/12/18 00:51:20;;;;;;;9.05;3.50;;;7.50;99.90;;;;;;5032667;28;20124;-55
2020/12/18 00:53:46;;;;;;;8.27;3.72;;;7.50;99.90;;;;;;5031419;28;20064;-55
2020/12/18 00:56:12;;;;;;;7.28;3.80;;;7.50;99.90;;;;;;5032412;28;20037;-47
2020/12/18 00:58:43;;;;;;;4.93;3.50;;;7.50;99.90;;;;;;5031145;28;20497;-50
2020/12/18 01:01:08;;;;;;;7.05;3.92;;;7.50;99.90;;;;;;5031133;28;20029;-48
2020/12/18 01:03:34;;;;;;;7.40;3.65;;;7.40;99.90;;;;;;5032007;28;20563;-49
2020/12/18 01:06:09;;;;;;;9.65;3.53;;;7.40;99.90;;;;;;5031338;28;20029;-51
2020/12/18 01:08:37;;;;;;;5.15;3.20;;;7.40;99.90;;;;;;5030365;28;20095;-50
2020/12/18 01:11:06;;;;;;;5.65;3.42;;;7.40;99.90;;;;;;5032007;28;20066;-49
2020/12/18 01:13:33;;;;;;;7.65;2.88;;;7.40;99.90;;;;;;5030817;28;20057;-48
2020/12/18 01:15:59;;;;;;;7.03;3.40;;;7.40;99.90;;;;;;5032391;28;20037;-49
2020/12/18 01:18:25;;;;;;;7.50;3.20;;;7.30;99.90;;;;;;5027636;28;20441;-50
2020/12/18 01:20:52;;;;;;;5.68;3.85;;;7.30;99.90;;;;;;5031989;28;20125;-50
2020/12/18 01:23:18;;;;;;;5.43;3.30;;;7.30;99.90;;;;;;5030696;28;20025;-53
2020/12/18 01:25:44;;;;;;;5.50;3.15;;;7.30;99.90;;;;;;5031915;28;20120;-53
2020/12/18 01:28:11;;;;;;;5.35;3.72;;;7.30;99.90;;;;;;5030428;28;20488;-51
2020/12/18 01:30:37;;;;;;;5.95;3.53;;;7.30;99.90;;;;;;5031928;28;20085;-54
2020/12/18 01:33:03;;;;;;;6.45;3.53;;;7.30;99.90;;;;;;5027279;28;20299;-54
2020/12/18 01:35:28;;;;;;;6.78;3.47;;;7.30;99.90;;;;;;5011891;28;20052;-51
2020/12/18 01:37:54;;;;;;;7.15;3.60;;;7.30;99.90;;;;;;5014187;28;20501;-53
2020/12/18 01:40:20;;;;;;;7.13;2.83;;;7.30;99.90;;;;;;5031444;28;20441;-56
2020/12/18 01:42:46;;;;;;;8.40;3.58;;;7.20;99.90;;;;;;5024246;28;20092;-54
2020/12/18 01:45:11;;;;;;;7.47;3.28;;;7.20;99.90;;;;;;5010343;28;20075;-52
2020/12/18 01:47:37;;;;;;;4.82;3.05;;;7.20;99.90;;;;;;5015980;28;20155;-51
2020/12/18 01:50:04;;;;;;;4.57;2.83;;;7.20;99.90;;;;;;5019308;28;20124;-52
2020/12/18 01:52:31;;;;;;;6.70;3.22;;;7.20;99.90;;;;;;5030878;28;20098;-52
2020/12/18 01:55:07;;;;;;;5.85;3.20;;;7.20;99.90;;;;;;5031762;28;20116;-56
2020/12/18 01:57:36;;;;;;;5.47;3.17;;;7.20;99.90;;;;;;5029193;28;20096;-51
2020/12/18 02:00:06;;;;;;;6.78;3.35;;;7.10;99.90;;;;;;5030261;28;20030;-50
2020/12/18 02:02:32;;;;;;;7.68;3.97;;;7.20;99.90;;;;;;5031278;28;20048;-50
2020/12/18 02:04:58;;;;;;;7.20;3.63;;;7.20;99.90;;;;;;5013417;28;20482;-52
2020/12/18 02:07:26;;;;;;;5.32;2.55;;;7.20;99.90;;;;;;5011714;28;20049;-52
2020/12/18 02:09:52;;;;;;;5.30;3.50;;;7.10;99.90;;;;;;5026170;28;20121;-54
2020/12/18 02:12:19;;;;;;;6.13;3.42;;;7.10;99.90;;;;;;5031004;28;20117;-53
2020/12/18 02:14:52;;;;;;;4.03;2.83;;;7.10;99.90;;;;;;5026063;28;20033;-52
2020/12/18 02:17:18;;;;;;;4.90;3.10;;;7.10;99.90;;;;;;5030909;28;20040;-53
2020/12/18 02:19:51;;;;;;;4.05;2.60;;;7.10;99.90;;;;;;5029589;28;20116;-53
2020/12/18 02:22:19;;;;;;;5.82;2.95;;;7.10;99.90;;;;;;5031088;28;20037;-54
2020/12/18 02:25:00;;;;;;;5.45;2.58;;;7.10;99.90;;;;;;5029458;28;20456;-52
2020/12/18 02:27:27;;;;;;;7.60;2.80;;;7.10;99.90;;;;;;5030665;28;20116;-55
2020/12/18 02:29:52;;;;;;;11.82;3.03;;;7.10;99.90;;;;;;5029637;28;20094;-56
2020/12/18 02:32:18;;;;;;;5.68;2.75;;;7.20;99.90;;;;;;5030563;28;20033;-54
2020/12/18 02:34:44;;;;;;;4.22;2.63;;;7.10;99.90;;;;;;5029182;28;20120;-52
2020/12/18 02:37:10;;;;;;;4.47;2.40;;;7.20;99.90;;;;;;5030903;28;20048;-54
2020/12/18 02:39:36;;;;;;;6.03;2.85;;;7.30;99.90;;;;;;5029284;28;20041;-53
2020/12/18 02:42:01;;;;;;;4.28;2.50;;;7.20;99.90;;;;;;5434858;22;20065;-52
2020/12/18 02:44:27;;;;;;;5.25;2.45;;;7.30;99.90;;;;;;5010537;28;20052;-51
2020/12/18 02:46:53;;;;;;;6.13;3.28;;;7.30;99.90;;;;;;5010688;28;20099;-55
2020/12/18 02:49:19;;;;;;;4.47;2.75;;;7.20;99.90;;;;;;5011005;28;20041;-53
2020/12/18 02:51:44;;;;;;;7.93;2.88;;;7.20;99.90;;;;;;5010528;28;20088;-53
2020/12/18 02:54:13;;;;;;;4.40;2.58;;;7.20;99.90;;;;;;5010311;28;20030;-53
2020/12/18 02:56:39;;;;;;;6.10;2.35;;;7.20;99.90;;;;;;5010234;28;20072;-51
2020/12/18 02:59:06;;;;;;;6.03;2.78;;;7.20;99.90;;;;;;5010640;28;20154;-49
2020/12/18 03:01:32;;;;;;;6.45;2.38;;;7.20;99.90;;;;;;5009879;28;20504;-48
2020/12/18 03:03:57;;;;;;;3.67;2.42;;;7.20;99.90;;;;;;5010178;28;20481;-48
2020/12/18 03:06:23;;;;;;;5.32;2.83;;;7.20;99.90;;;;;;5010445;28;20034;-53
2020/12/18 03:08:49;;;;;;;4.60;2.40;;;7.20;99.90;;;;;;5010271;28;20026;-47
2020/12/18 03:11:15;;;;;;;3.50;2.28;;;7.20;99.90;;;;;;5010205;28;20033;-50
2020/12/18 03:13:44;;;;;;;5.82;2.58;;;7.20;99.90;;;;;;5010074;28;20378;-51
2020/12/18 03:16:11;;;;;;;4.47;2.45;;;7.20;99.90;;;;;;5010243;28;20052;-53
2020/12/18 03:18:39;;;;;;;4.72;2.70;;;7.20;99.90;;;;;;5010308;28;20033;-52
2020/12/18 03:21:05;;;;;;;4.13;1.98;;;7.20;99.90;;;;;;5009729;28;20032;-52
2020/12/18 03:23:31;;;;;;;4.32;2.55;;;7.20;99.90;;;;;;5009536;28;20026;-52
2020/12/18 03:25:56;;;;;;;5.75;2.38;;;7.20;99.90;;;;;;5010115;28;20030;-54
2020/12/18 03:28:22;;;;;;;4.57;2.00;;;7.20;99.90;;;;;;5009820;28;20359;-53
2020/12/18 03:30:48;;;;;;;5.78;2.60;;;7.20;99.90;;;;;;5010188;28;20037;-53
2020/12/18 03:33:15;;;;;;;3.45;1.77;;;7.20;99.90;;;;;;5009829;28;20231;-54
2020/12/18 03:35:40;;;;;;;5.20;2.05;;;7.20;99.90;;;;;;5009639;28;20032;-49
2020/12/18 03:38:06;;;;;;;4.57;2.20;;;7.10;99.90;;;;;;5009877;28;20121;-50
2020/12/18 03:40:32;;;;;;;6.05;2.17;;;7.10;99.90;;;;;;5009365;28;20121;-52
2020/12/18 03:42:57;;;;;;;5.57;2.72;;;7.10;99.90;;;;;;5009305;28;20052;-48
2020/12/18 03:45:23;;;;;;;5.07;2.58;;;7.10;99.90;;;;;;5009514;28;20502;-51
2020/12/18 03:47:49;;;;;;;4.22;2.30;;;7.10;99.90;;;;;;5009406;28;20121;-52
2020/12/18 03:50:15;;;;;;;3.45;1.88;;;7.10;99.90;;;;;;5009900;28;20112;-53
2020/12/18 03:52:41;;;;;;;3.60;1.98;;;7.10;99.90;;;;;;5009265;28;20022;-56
2020/12/18 03:55:06;;;;;;;6.30;2.28;;;7.10;99.90;;;;;;5009302;28;20034;-54
2020/12/18 03:57:32;;;;;;;3.10;1.70;;;7.10;99.90;;;;;;5009278;28;20029;-55
2020/12/18 03:59:58;;;;;;;4.75;2.10;;;7.10;99.90;;;;;;5009157;28;20038;-51
2020/12/18 04:02:24;;;;;;;4.35;2.45;;;7.10;99.90;;;;;;5009204;28;20040;-54
2020/12/18 04:04:50;;;;;;;4.47;2.33;;;7.10;99.90;;;;;;5009192;28;20548;-53
2020/12/18 04:07:17;;;;;;;4.38;2.33;;;7.10;99.90;;;;;;5009116;28;20434;-50
2020/12/18 04:09:43;;;;;;;3.25;1.73;;;7.10;99.90;;;;;;5009155;28;20040;-47
2020/12/18 04:12:10;;;;;;;4.75;2.42;;;7.10;99.90;;;;;;5009255;28;20034;-52
2020/12/18 04:14:36;;;;;;;3.80;1.95;;;7.10;99.90;;;;;;5008275;28;20038;-52
2020/12/18 04:17:03;;;;;;;3.83;1.98;;;7.10;99.90;;;;;;5009429;28;20216;-55
2020/12/18 04:19:29;;;;;;;3.50;1.92;;;7.10;99.90;;;;;;5008970;28;20045;-56
2020/12/18 04:21:56;;;;;;;7.75;2.78;;;7.10;99.90;;;;;;5009018;28;20481;-50
2020/12/18 04:24:22;;;;;;;4.40;2.08;;;7.10;99.90;;;;;;5008879;28;20045;-55
2020/12/18 04:26:48;;;;;;;4.13;2.10;;;7.10;99.90;;;;;;5009256;28;20122;-52
2020/12/18 04:29:14;;;;;;;4.43;1.80;;;7.10;99.90;;;;;;5009094;28;20535;-54
2020/12/18 04:31:40;;;;;;;3.15;1.73;;;7.10;99.90;;;;;;5009059;28;20034;-54
2020/12/18 04:34:06;;;;;;;5.10;2.15;;;7.10;99.90;;;;;;5008755;28;20056;-52
2020/12/18 04:36:32;;;;;;;4.90;2.03;;;7.10;99.90;;;;;;5009316;28;20034;-50
2020/12/18 04:38:58;;;;;;;3.35;1.77;;;7.10;99.90;;;;;;5009170;28;20599;-54
2020/12/18 04:41:26;;;;;;;3.40;2.05;;;7.10;99.90;;;;;;5008816;28;20072;-50
2020/12/18 04:43:52;;;;;;;4.03;1.95;;;7.00;99.90;;;;;;5008587;28;20069;-54
2020/12/18 04:46:22;;;;;;;2.58;1.73;;;7.00;99.90;;;;;;5008622;28;20096;-56
2020/12/18 04:48:49;;;;;;;3.67;1.83;;;7.00;99.90;;;;;;5009196;28;20117;-50
2020/12/18 04:51:20;;;;;;;4.00;2.05;;;7.00;99.90;;;;;;5008831;28;20029;-50
2020/12/18 04:53:49;;;;;;;2.65;1.70;;;7.00;99.90;;;;;;5008790;28;20063;-52
2020/12/18 04:56:24;;;;;;;4.80;2.03;;;7.10;99.90;;;;;;5008903;28;20030;-52
2020/12/18 04:58:52;;;;;;;6.70;3.03;;;7.10;99.90;;;;;;5008966;28;20042;-53
2020/12/18 05:01:19;;;;;;;7.32;2.75;;;7.10;99.90;;;;;;5008536;28;20025;-53
2020/12/18 05:03:46;;;;;;;3.95;1.77;;;7.00;99.90;;;;;;5008758;28;20093;-53
2020/12/18 05:06:12;;;;;;;4.10;1.98;;;7.00;99.90;;;;;;5008566;28;20037;-52
2020/12/18 05:08:38;;;;;;;4.38;1.98;;;7.00;99.90;;;;;;5008855;28;20477;-54
2020/12/18 05:11:25;;;;;;;3.85;2.35;;;7.00;99.90;;;;;;5008603;28;20030;-48
2020/12/18 05:13:52;;;;;;;2.95;1.75;;;7.00;99.90;;;;;;5008503;28;20049;-50
2020/12/18 05:16:22;;;;;;;3.33;1.73;;;7.10;99.90;;;;;;5008564;28;20115;-49
2020/12/18 05:18:52;;;;;;;3.42;2.08;;;7.00;99.90;;;;;;5008757;28;20026;-51
2020/12/18 05:21:18;;;;;;;2.97;1.65;;;7.00;99.90;;;;;;5008497;28;20030;-50
2020/12/18 05:23:45;;;;;;;4.60;1.83;;;7.00;99.90;;;;;;5008870;28;20168;-54
2020/12/18 05:26:13;;;;;;;4.38;2.33;;;7.00;99.90;;;;;;5011456;28;20401;-51
2020/12/18 05:28:45;;;;;;;3.78;2.28;;;7.00;99.90;;;;;;5011914;28;20030;-52
2020/12/18 05:31:18;;;;;;;3.72;2.17;;;7.00;99.90;;;;;;5012179;28;20034;-48
2020/12/18 05:33:47;;;;;;;2.40;1.55;;;7.10;99.90;;;;;;5011381;28;20079;-47
2020/12/18 05:36:13;;;;;;;4.03;2.05;;;7.00;99.90;;;;;;5011352;28;20025;-49
2020/12/18 05:38:41;;;;;;;5.90;1.50;;;7.00;99.90;;;;;;5011843;28;20363;-50
2020/12/18 05:41:08;;;;;;;3.17;1.90;;;7.10;99.90;;;;;;5009469;28;20042;-50
2020/12/18 05:43:37;;;;;;;5.55;1.85;;;7.10;99.90;;;;;;5010388;28;20562;-49
2020/12/18 05:46:16;;;;;;;5.85;1.73;;;7.00;99.90;;;;;;5010736;28;20381;-47
2020/12/18 05:48:44;;;;;;;4.78;1.85;;;7.10;99.90;;;;;;5011583;28;20038;-51
2020/12/18 05:51:11;;;;;;;4.78;2.47;;;7.00;99.90;;;;;;5010751;28;20044;-56
2020/12/18 05:53:37;;;;;;;6.95;3.28;;;7.00;99.90;;;;;;5005161;28;20508;-52
2020/12/18 05:56:02;;;;;;;5.68;2.88;;;7.00;99.90;;;;;;5010642;28;20366;-51
2020/12/18 05:58:28;;;;;;;5.03;2.80;;;7.00;99.90;;;;;;5010628;28;20034;-50
2020/12/18 06:00:59;;;;;;;4.30;1.95;;;7.00;99.90;;;;;;5009713;28;20054;-53
2020/12/18 06:03:36;;;;;;;5.82;2.42;;;7.00;99.90;;;;;;5008231;28;20480;-53
2020/12/18 06:06:10;;;;;;;7.20;3.00;;;7.00;99.90;;;;;;5009378;28;20034;-52
2020/12/18 06:08:40;;;;;;;5.65;2.20;;;7.00;99.90;;;;;;5011207;28;20053;-52
2020/12/18 06:11:09;;;;;;;7.88;1.92;;;7.00;99.90;;;;;;5010207;28;20046;-48
2020/12/18 06:13:37;;;;;;;8.63;1.95;;;7.00;99.90;;;;;;5010342;28;20042;-52
2020/12/18 06:16:05;;;;;;;5.07;2.45;;;7.00;99.90;;;;;;5010298;28;20030;-53
2020/12/18 06:18:37;;;;;;;11.55;2.33;;;7.00;99.90;;;;;;5009271;28;20334;-55
2020/12/18 06:21:12;;;;;;;7.43;2.60;;;7.00;99.90;;;;;;5009977;28;20497;-50
2020/12/18 06:23:39;;;;;;;3.60;2.05;;;7.10;99.90;;;;;;5009931;28;20050;-52
2020/12/18 06:26:06;;;;;;;4.95;2.30;;;7.10;99.90;;;;;;5010831;28;20034;-51
2020/12/18 06:28:32;;;;;;;7.43;3.40;;;7.10;99.90;;;;;;5010046;28;20034;-54
2020/12/18 06:31:27;;;;;;;6.55;1.90;;;7.10;99.90;;;;;;5010613;28;20551;-53
2020/12/18 06:33:55;;;;;;;4.43;1.90;;;7.10;99.90;;;;;;5010125;28;20405;-54
2020/12/18 06:36:45;;;;;;;7.40;2.58;;;7.10;99.90;;;;;;5009792;28;20430;-53
2020/12/18 06:39:31;;;;;;;7.97;2.53;;;7.10;99.90;;;;;;5010048;28;20436;-51
2020/12/18 06:42:16;;;;;;;9.05;2.05;;;7.10;99.90;;;;;;5009959;28;20040;-53
2020/12/18 06:44:46;;;;;;;5.37;2.60;;;7.10;99.90;;;;;;5009449;28;20038;-53
2020/12/18 06:47:17;;;;;;;3.80;2.00;;;7.10;99.90;;;;;;5009525;28;20269;-50
2020/12/18 06:49:55;;;;;;;4.40;2.40;;;7.20;99.90;;;;;;4994828;28;20141;-53
2020/12/18 06:52:48;;;;;;;6.40;2.08;;;7.10;99.90;;;;;;4999415;28;20038;-53
2020/12/18 06:55:13;;;;;;;5.97;2.47;;;7.10;99.90;;;;;;5003065;28;20041;-50
2020/12/18 06:57:40;;;;;;;4.10;1.90;;;7.10;99.90;;;;;;4999284;28;20041;-50
2020/12/18 07:00:21;;;;;;;4.60;2.10;;;7.10;99.90;;;;;;5010211;28;20486;-55
2020/12/18 07:02:48;;;;;;;5.15;2.25;;;7.10;99.90;;;;;;5005303;28;20117;-54
2020/12/18 07:05:34;;;;;;;4.13;2.05;;;7.10;99.90;;;;;;5004044;28;20391;-49
2020/12/18 07:08:02;;;;;;;4.32;2.25;;;7.10;99.90;;;;;;5008735;28;20496;-53
2020/12/18 07:10:43;;;;;;;5.53;1.95;;;7.10;99.90;;;;;;5003769;28;20048;-50
2020/12/18 07:13:16;;;;;;;6.88;2.40;;;7.10;99.90;;;;;;5008774;28;20275;-48
2020/12/18 07:15:46;;;;;;;4.57;2.22;;;7.20;99.90;;;;;;5010296;28;20042;-55
2020/12/18 07:18:42;;;;;;;4.03;1.88;;;7.20;99.90;;;;;;5006859;28;20486;-55
2020/12/18 07:21:10;;;;;;;3.58;2.20;;;7.20;99.90;;;;;;4995688;28;20182;-52
2020/12/18 07:23:39;;;;;;;5.25;2.58;;;7.20;99.90;;;;;;4995791;28;20053;-48
2020/12/18 07:26:06;;;;;;;3.67;1.73;;;7.20;99.90;;;;;;5008720;28;20046;-49
2020/12/18 07:28:37;;;;;;;7.93;2.00;;;7.30;99.90;;;;;;5008005;28;20028;-46
2020/12/18 07:31:14;;;;;;;3.47;2.05;;;7.30;99.90;;;;;;5008492;28;20041;-51
2020/12/18 07:33:39;;;;;;;6.15;2.28;;;7.50;99.90;;;;;;5006708;28;20064;-49
2020/12/18 07:36:06;;;;;;;4.57;2.80;;;7.60;99.90;;;;;;5008007;28;20026;-51
2020/12/18 07:38:33;;;;;;;3.72;1.67;;;7.50;99.90;;;;;;5009504;28;20049;-50
2020/12/18 07:41:06;;;;;;;5.05;2.55;;;7.40;99.90;;;;;;4997620;28;20034;-52
2020/12/18 07:43:34;;;;;;;3.03;1.58;;;7.40;99.90;;;;;;5001546;28;20413;-54
2020/12/18 07:46:04;;;;;;;6.20;2.78;;;7.40;99.90;;;;;;5003264;28;20042;-47
2020/12/18 07:48:32;;;;;;;5.85;2.38;;;7.40;99.90;;;;;;5007794;28;20045;-53
2020/12/18 07:51:04;;;;;;;6.07;2.22;;;7.40;99.90;;;;;;4995207;28;20033;-53
2020/12/18 07:53:32;;;;;;;4.07;1.75;;;7.40;99.90;;;;;;5009251;28;20087;-52
2020/12/18 07:56:07;;;;;;;6.57;2.10;;;7.40;99.90;;;;;;5004981;28;20034;-52
2020/12/18 07:58:35;;;;;;;3.92;2.28;;;7.40;99.90;;;;;;4993246;28;20101;-56
2020/12/18 08:01:06;;;;;;;6.20;3.00;;;7.40;99.90;;;;;;5008442;28;20026;-55
2020/12/18 08:03:32;;;;;;;8.50;3.08;;;7.40;99.90;;;;;;5007872;28;20540;-50
2020/12/18 08:05:59;;;;;;;7.90;2.88;;;7.40;99.90;;;;;;5001687;28;20038;-52
2020/12/18 08:08:25;;;;;;;4.28;2.63;;;7.40;99.90;;;;;;4997142;28;20037;-51
2020/12/18 08:10:51;;;;;;;6.85;3.00;;;7.40;99.90;;;;;;5007291;28;20030;-52
2020/12/18 08:13:31;;;;;;;8.30;2.88;;;7.40;99.90;;;;;;5000057;28;20041;-50
2020/12/18 08:16:29;;;;;;;7.53;2.55;;;7.40;99.90;;;;;;5004534;28;20053;-51
2020/12/18 08:18:59;;;;;;;5.40;2.50;;;7.50;99.90;;;;;;4985050;28;20042;-49
2020/12/18 08:21:27;;;;;;;6.68;2.92;;;7.50;99.90;;;;;;4995705;28;20073;-50
2020/12/18 08:24:31;;;;;;;8.75;3.60;;;7.50;99.90;;;;;;5009293;28;20036;-53
2020/12/18 08:27:15;;;;;;;15.10;5.05;;;7.50;99.90;;;;;;5005594;28;20040;-48
2020/12/18 08:29:43;;;;;;;9.13;3.25;;;7.50;99.90;;;;;;4997838;28;20049;-47
2020/12/18 08:32:12;;;;;;;5.45;2.85;;;7.50;99.90;;;;;;5004724;28;20037;-51
2020/12/18 08:34:39;;;;;;;9.05;3.50;;;7.60;99.90;;;;;;5006552;28;20061;-48
2020/12/18 08:37:05;;;;;;;9.57;2.83;;;7.60;99.90;;;;;;4989663;28;20032;-49
2020/12/18 08:39:34;;;;;;;7.88;2.70;;;7.60;99.90;;;;;;4995724;28;20041;-50
2020/12/18 08:42:00;;;;;;;6.93;3.17;;;7.60;99.90;;;;;;5005952;28;20052;-51
2020/12/18 08:44:38;;;;;;;7.00;2.65;;;7.70;99.90;;;;;;5007315;28;20053;-54
2020/12/18 08:47:23;;;;;;;5.05;2.45;;;7.70;99.90;;;;;;5005326;28;20037;-49
2020/12/18 08:49:51;;;;;;;5.57;2.63;;;7.80;99.90;;;;;;5007053;28;20374;-55
2020/12/18 08:52:23;;;;;;;5.78;3.00;;;7.80;99.90;;;;;;4997372;28;20052;-53
2020/12/18 08:55:07;;;;;;;8.13;2.70;;;7.80;99.90;;;;;;5006974;28;20080;-54
2020/12/18 08:57:36;;;;;;;6.70;3.78;;;7.80;99.90;;;;;;5006009;28;20116;-53
2020/12/18 09:00:09;;;;;;;7.57;2.53;;;7.80;99.90;;;;;;5006335;28;20480;-54
2020/12/18 09:02:57;;;;;;;6.50;2.70;;;7.80;99.90;;;;;;4991875;28;20034;-49
2020/12/18 09:05:25;;;;;;;4.80;2.55;;;7.90;99.90;;;;;;4992676;28;20549;-54
2020/12/18 09:07:51;;;;;;;6.13;2.45;;;7.90;99.90;;;;;;5001683;28;20037;-54
2020/12/18 09:10:27;;;;;;;6.18;2.20;;;7.90;99.90;;;;;;5012193;28;20038;-50
2020/12/18 09:12:53;;;;;;;5.78;2.30;;;8.00;99.90;;;;;;5009903;28;20180;-53
2020/12/18 09:15:27;;;;;;;8.73;2.97;;;8.00;99.90;;;;;;5012106;28;20274;-55
2020/12/18 09:18:04;;;;;;;18.08;2.95;;;8.00;99.90;;;;;;4999616;28;20591;-52
2020/12/18 09:20:38;;;;;;;5.20;3.15;;;8.00;99.90;;;;;;4992574;28;20058;-53
2020/12/18 09:23:11;;;;;;;4.80;2.75;;;8.10;99.90;;;;;;5007480;28;20448;-54
2020/12/18 09:25:48;;;;;;;3.63;2.10;;;8.10;99.90;;;;;;4996618;28;20379;-53
2020/12/18 09:28:19;;;;;;;4.40;2.30;;;8.00;99.90;;;;;;5008023;28;20133;-55
2020/12/18 09:30:59;;;;;;;7.32;2.47;;;8.00;99.90;;;;;;4992484;28;20030;-52
2020/12/18 09:33:30;;;;;;;5.65;2.35;;;8.10;99.90;;;;;;5020236;28;20041;-52
2020/12/18 09:36:05;;;;;;;8.07;2.45;;;8.20;99.90;;;;;;4999074;28;20109;-51
2020/12/18 09:38:38;;;;;;;6.38;2.40;;;8.20;99.90;;;;;;5005072;28;20030;-49
2020/12/18 09:41:19;;;;;;;4.03;2.30;;;8.20;99.90;;;;;;4998124;28;20116;-49
2020/12/18 09:43:45;;;;;;;4.80;2.58;;;8.30;99.90;;;;;;4996027;28;20054;-53
2020/12/18 09:46:12;;;;;;;4.07;2.35;;;8.30;99.90;;;;;;5000587;28;20128;-54
2020/12/18 09:48:42;;;;;;;3.70;2.08;;;8.40;99.90;;;;;;5010953;28;20112;-51
2020/12/18 09:51:08;;;;;;;7.47;2.30;;;8.40;99.90;;;;;;5010507;28;20120;-48
2020/12/18 09:53:34;;;;;;;3.80;1.65;;;8.50;99.90;;;;;;5007788;28;20049;-53
2020/12/18 09:56:00;;;;;;;6.15;2.60;;;8.50;99.90;;;;;;4991799;28;20490;-52
2020/12/18 09:58:26;;;;;;;6.05;2.15;;;8.40;99.90;;;;;;5000272;28;20057;-48
2020/12/18 10:00:52;;;;;;;4.30;1.95;;;8.50;99.90;;;;;;4995580;28;20344;-55
2020/12/18 10:03:18;;;;;;;2.95;1.90;;;8.50;99.90;;;;;;4995669;28;20046;-53
2020/12/18 10:05:45;;;;;;;5.43;1.60;;;8.60;99.90;;;;;;5000037;28;20229;-48
2020/12/18 10:08:11;;;;;;;4.00;2.13;;;8.60;99.90;;;;;;4997498;28;20030;-54
2020/12/18 10:10:37;;;;;;;5.35;1.90;;;8.50;99.90;;;;;;5005185;28;20456;-55
2020/12/18 10:13:03;;;;;;;6.78;2.47;;;8.50;99.90;;;;;;4997140;28;20042;-51
2020/12/18 10:15:29;;;;;;;6.57;3.15;;;8.50;99.90;;;;;;4999070;28;20034;-53
2020/12/18 10:17:56;;;;;;;4.78;2.72;;;8.50;99.90;;;;;;4999485;28;20030;-56
2020/12/18 10:20:22;;;;;;;9.45;2.65;;;8.60;99.90;;;;;;4995028;28;20113;-54
2020/12/18 10:22:51;;;;;;;7.15;2.50;;;8.60;99.90;;;;;;4998765;28;20030;-54
2020/12/18 10:25:17;;;;;;;5.28;2.63;;;8.60;99.90;;;;;;4998929;28;20048;-56
2020/12/18 10:27:46;;;;;;;6.63;2.60;;;8.60;99.90;;;;;;4998086;28;20027;-53
2020/12/18 10:30:13;;;;;;;9.85;2.90;;;8.70;99.90;;;;;;5000711;28;20143;-53
2020/12/18 10:32:39;;;;;;;3.03;1.95;;;8.80;99.90;;;;;;4999444;28;20489;-56
2020/12/18 10:35:07;;;;;;;4.22;2.47;;;8.80;99.90;;;;;;4998923;28;20072;-55
2020/12/18 10:37:33;;;;;;;8.18;2.97;;;8.90;99.90;;;;;;4996644;28;20030;-55
2020/12/18 10:39:59;;;;;;;6.50;3.38;;;8.90;99.90;;;;;;4996729;28;20065;-54
2020/12/18 10:42:26;;;;;;;5.95;3.28;;;9.00;99.90;;;;;;4996028;28;20119;-55
2020/12/18 10:44:52;;;;;;;6.50;3.33;;;9.10;99.90;;;;;;4998110;28;20045;-55
2020/12/18 10:47:18;;;;;;;6.32;3.38;;;9.10;99.90;;;;;;4998269;28;20034;-54
2020/12/18 10:49:44;;;;;;;6.88;3.40;;;9.10;99.90;;;;;;5000237;28;20129;-53
2020/12/18 10:52:10;;;;;;;9.15;3.25;;;9.10;99.90;;;;;;4997012;28;20037;-53
2020/12/18 10:54:36;;;;;;;8.55;3.10;;;9.10;99.90;;;;;;4995554;28;20034;-56
2020/12/18 10:57:02;;;;;;;5.68;2.70;;;9.00;99.90;;;;;;4998832;28;20402;-56
2020/12/18 10:59:32;;;;;;;3.35;2.47;;;9.00;99.90;;;;;;5002861;28;20108;-51
2020/12/18 11:01:59;;;;;;;7.63;3.00;;;9.00;99.90;;;;;;5002280;28;20029;-56
2020/12/18 11:04:26;;;;;;;5.93;2.65;;;9.00;99.90;;;;;;4998581;28;20073;-53
2020/12/18 11:06:52;;;;;;;7.22;2.63;;;9.10;99.90;;;;;;4994867;28;20068;-53
2020/12/18 11:09:17;;;;;;;5.50;2.47;;;9.10;99.90;;;;;;5006064;28;20026;-55
2020/12/18 11:11:49;;;;;;;5.32;2.92;;;9.10;99.90;;;;;;5009799;28;20112;-55
2020/12/18 11:14:15;;;;;;;6.32;3.20;;;9.10;99.90;;;;;;5001328;28;20032;-53
2020/12/18 11:16:40;;;;;;;5.35;2.55;;;9.10;99.90;;;;;;5007764;28;20037;-50
2020/12/18 11:19:07;;;;;;;8.00;2.45;;;9.10;99.90;;;;;;5008382;28;20139;-54
2020/12/18 11:21:32;;;;;;;4.60;2.08;;;9.20;99.90;;;;;;5008796;28;20036;-55
2020/12/18 11:23:58;;;;;;;4.40;2.00;;;9.20;99.90;;;;;;5008499;28;20038;-53
2020/12/18 11:26:25;;;;;;;6.53;2.10;;;9.30;99.90;;;;;;5009854;28;20033;-54
2020/12/18 11:28:51;;;;;;;5.18;2.03;;;9.40;99.90;;;;;;5008592;28;20017;-52
2020/12/18 11:31:17;;;;;;;4.25;1.98;;;9.50;99.90;;;;;;5009771;28;20041;-54
2020/12/18 11:33:43;;;;;;;5.85;2.33;;;9.60;99.90;;;;;;5007994;28;20125;-53
2020/12/18 11:36:08;;;;;;;4.70;2.28;;;9.60;99.90;;;;;;5001519;28;20027;-54
2020/12/18 11:38:34;;;;;;;2.55;1.30;;;9.60;99.90;;;;;;4992590;28;20025;-52
2020/12/18 11:41:00;;;;;;;4.60;1.48;;;9.60;99.90;;;;;;5009898;28;20533;-55
2020/12/18 11:43:26;;;;;;;4.05;2.03;;;9.60;99.90;;;;;;4996678;28;20165;-53
2020/12/18 11:45:51;;;;;;;5.43;2.17;;;9.60;99.90;;;;;;4994979;28;20034;-51
2020/12/18 11:48:17;;;;;;;6.28;3.58;;;9.70;99.90;;;;;;5009699;28;20034;-48
2020/12/18 11:50:43;;;;;;;4.80;2.22;;;9.80;99.90;;;;;;5006550;28;20033;-54
2020/12/18 11:53:09;;;;;;;6.15;2.58;;;9.80;99.90;;;;;;5004542;28;20034;-57
2020/12/18 11:55:35;;;;;;;4.40;1.83;;;9.80;99.90;;;;;;5008380;28;20034;-53
2020/12/18 11:58:02;;;;;;;7.22;2.83;;;9.80;99.90;;;;;;5006203;28;20045;-48
2020/12/18 12:00:27;;;;;;;4.95;1.80;;;9.80;99.90;;;;;;5008505;28;20044;-52
2020/12/18 12:02:53;;;;;;;4.50;2.17;;;9.90;99.90;;;;;;5005673;28;20026;-53
2020/12/18 12:05:21;;;;;;;5.35;2.20;;;9.80;99.90;;;;;;5008686;28;20033;-53
2020/12/18 12:07:47;;;;;;;3.55;2.03;;;9.80;99.90;;;;;;5008272;28;20121;-54
2020/12/18 12:10:13;;;;;;;3.30;1.98;;;9.80;99.90;;;;;;5007756;28;20055;-52
2020/12/18 12:12:39;;;;;;;4.63;2.30;;;9.80;99.90;;;;;;4996887;28;20529;-53
2020/12/18 12:15:06;;;;;;;4.90;2.35;;;9.80;99.90;;;;;;5002962;28;20058;-53
2020/12/18 12:17:32;;;;;;;4.70;2.45;;;9.90;99.90;;;;;;5003898;28;20060;-56
2020/12/18 12:19:58;;;;;;;4.65;2.10;;;10.00;99.90;;;;;;5004011;28;20038;-54
2020/12/18 12:22:25;;;;;;;4.80;2.05;;;10.10;99.90;;;;;;4989766;28;20034;-53
2020/12/18 12:24:51;;;;;;;3.88;2.03;;;10.20;99.90;;;;;;5000610;28;20073;-55
2020/12/18 12:27:21;;;;;;;4.35;2.30;;;10.20;99.90;;;;;;5008658;28;20030;-54
2020/12/18 12:29:47;;;;;;;5.35;2.53;;;10.40;99.90;;;;;;4997114;28;20088;-52
2020/12/18 12:32:13;;;;;;;9.07;2.58;;;10.50;99.90;;;;;;4998481;28;20577;-53
2020/12/18 12:34:38;;;;;;;9.90;2.92;;;10.60;99.90;;;;;;4994043;28;20515;-58
2020/12/18 12:37:04;;;;;;;4.93;2.47;;;10.50;99.90;;;;;;5013045;28;20113;-56
2020/12/18 12:39:30;;;;;;;6.57;2.55;;;10.50;99.90;;;;;;4998901;28;20038;-53
2020/12/18 12:41:56;;;;;;;5.03;2.58;;;10.50;99.90;;;;;;4995241;28;20060;-52
2020/12/18 12:44:21;;;;;;;4.85;2.50;;;10.60;99.90;;;;;;5005606;28;20034;-55
2020/12/18 12:46:47;;;;;;;6.07;2.10;;;10.50;99.90;;;;;;5000356;28;20030;-53
2020/12/18 12:49:13;;;;;;;3.55;2.30;;;10.50;99.90;;;;;;4998861;28;20044;-52
2020/12/18 12:51:39;;;;;;;4.60;2.80;;;10.50;99.90;;;;;;4998370;28;20129;-56
2020/12/18 12:54:05;;;;;;;4.85;2.13;;;10.40;99.90;;;;;;4998887;28;20030;-56
2020/12/18 12:56:31;;;;;;;5.47;2.47;;;10.40;99.90;;;;;;4994960;28;20034;-56
2020/12/18 12:58:56;;;;;;;6.53;2.08;;;10.40;99.90;;;;;;4996087;28;20038;-53
2020/12/18 13:01:22;;;;;;;7.05;2.00;;;10.30;99.90;;;;;;4993608;28;20735;-53